sensor_id;sensor_type;location;lat;lon;timestamp;temperature;humidity
81869;DHT22;71320;52.252;13.382;2023-10-19T00:01:35;20.90;49.30
81869;DHT22;71320;52.252;13.382;2023-10-19T00:06:39;20.80;49.30
81869;DHT22;71320;52.252;13.382;2023-10-19T00:11:41;20.80;49.20
81869;DHT22;71320;52.252;13.382;2023-10-19T00:16:43;20.90;49.30
81869;DHT22;71320;52.252;13.382;2023-10-19T00:21:52;20.80;49.30
81869;DHT22;71320;52.252;13.382;2023-10-19T00:26:55;20.80;49.20
81869;DHT22;71320;52.252;13.382;2023-10-19T00:31:56;20.80;49.30
81869;DHT22;71320;52.252;13.382;2023-10-19T00:37:01;20.80;49.20
81869;DHT22;71320;52.252;13.382;2023-10-19T00:42:08;20.80;49.30
81869;DHT22;71320;52.252;13.382;2023-10-19T00:47:10;20.80;49.20
81869;DHT22;71320;52.252;13.382;2023-10-19T00:52:15;20.80;49.20
81869;DHT22;71320;52.252;13.382;2023-10-19T00:57:20;20.80;49.20
81869;DHT22;71320;52.252;13.382;2023-10-19T01:02:24;20.80;49.20
81869;DHT22;71320;52.252;13.382;2023-10-19T01:07:31;20.80;49.20
81869;DHT22;71320;52.252;13.382;2023-10-19T01:12:35;20.70;49.10
81869;DHT22;71320;52.252;13.382;2023-10-19T01:17:40;20.70;49.20
81869;DHT22;71320;52.252;13.382;2023-10-19T01:22:48;20.70;49.10
81869;DHT22;71320;52.252;13.382;2023-10-19T01:27:53;20.70;49.10
81869;DHT22;71320;52.252;13.382;2023-10-19T01:32:58;20.70;49.10
81869;DHT22;71320;52.252;13.382;2023-10-19T01:38:01;20.70;49.00
81869;DHT22;71320;52.252;13.382;2023-10-19T01:43:02;20.60;49.00
81869;DHT22;71320;52.252;13.382;2023-10-19T01:48:04;20.60;48.90
81869;DHT22;71320;52.252;13.382;2023-10-19T01:53:08;20.70;49.00
81869;DHT22;71320;52.252;13.382;2023-10-19T01:58:15;20.70;49.00
81869;DHT22;71320;52.252;13.382;2023-10-19T02:03:17;20.60;48.90
81869;DHT22;71320;52.252;13.382;2023-10-19T02:08:21;20.60;48.90
81869;DHT22;71320;52.252;13.382;2023-10-19T02:13:25;20.60;48.90
81869;DHT22;71320;52.252;13.382;2023-10-19T02:18:27;20.60;48.90
81869;DHT22;71320;52.252;13.382;2023-10-19T02:23:31;20.60;48.90
81869;DHT22;71320;52.252;13.382;2023-10-19T02:28:34;20.60;48.90
81869;DHT22;71320;52.252;13.382;2023-10-19T02:33:37;20.60;48.90
81869;DHT22;71320;52.252;13.382;2023-10-19T02:38:41;20.60;48.90
81869;DHT22;71320;52.252;13.382;2023-10-19T02:43:45;20.60;48.90
81869;DHT22;71320;52.252;13.382;2023-10-19T02:48:50;20.60;48.90
81869;DHT22;71320;52.252;13.382;2023-10-19T02:53:54;20.60;48.90
81869;DHT22;71320;52.252;13.382;2023-10-19T02:58:55;20.50;48.90
81869;DHT22;71320;52.252;13.382;2023-10-19T03:04:04;20.60;48.90
81869;DHT22;71320;52.252;13.382;2023-10-19T03:09:07;20.60;48.90
81869;DHT22;71320;52.252;13.382;2023-10-19T03:14:14;20.50;48.90
81869;DHT22;71320;52.252;13.382;2023-10-19T03:19:16;20.50;48.90
81869;DHT22;71320;52.252;13.382;2023-10-19T03:24:19;20.50;48.90
81869;DHT22;71320;52.252;13.382;2023-10-19T03:29:35;20.50;48.90
81869;DHT22;71320;52.252;13.382;2023-10-19T03:34:39;20.50;48.80
81869;DHT22;71320;52.252;13.382;2023-10-19T03:39:45;20.50;48.80
81869;DHT22;71320;52.252;13.382;2023-10-19T03:44:47;20.50;48.90
81869;DHT22;71320;52.252;13.382;2023-10-19T03:49:54;20.50;48.80
81869;DHT22;71320;52.252;13.382;2023-10-19T03:54:58;20.50;48.80
81869;DHT22;71320;52.252;13.382;2023-10-19T03:59:59;20.50;48.80
81869;DHT22;71320;52.252;13.382;2023-10-19T04:05:01;20.50;48.80
81869;DHT22;71320;52.252;13.382;2023-10-19T04:10:05;20.50;48.70
81869;DHT22;71320;52.252;13.382;2023-10-19T04:15:24;20.50;48.80
81869;DHT22;71320;52.252;13.382;2023-10-19T04:20:26;20.50;48.80
81869;DHT22;71320;52.252;13.382;2023-10-19T04:25:31;20.40;48.70
81869;DHT22;71320;52.252;13.382;2023-10-19T04:30:33;20.40;48.70
81869;DHT22;71320;52.252;13.382;2023-10-19T04:35:37;20.40;48.60
81869;DHT22;71320;52.252;13.382;2023-10-19T04:40:42;20.40;48.60
81869;DHT22;71320;52.252;13.382;2023-10-19T04:45:44;20.40;48.60
81869;DHT22;71320;52.252;13.382;2023-10-19T04:50:50;20.40;48.60
81869;DHT22;71320;52.252;13.382;2023-10-19T04:55:53;20.40;48.50
81869;DHT22;71320;52.252;13.382;2023-10-19T05:00:55;20.40;48.60
81869;DHT22;71320;52.252;13.382;2023-10-19T05:05:58;20.40;48.60
81869;DHT22;71320;52.252;13.382;2023-10-19T05:11:03;20.40;48.60
81869;DHT22;71320;52.252;13.382;2023-10-19T05:16:05;20.40;48.80
81869;DHT22;71320;52.252;13.382;2023-10-19T05:21:07;20.40;48.70
81869;DHT22;71320;52.252;13.382;2023-10-19T05:26:11;20.40;49.40
81869;DHT22;71320;52.252;13.382;2023-10-19T05:31:15;20.60;48.90
81869;DHT22;71320;52.252;13.382;2023-10-19T05:36:16;20.50;48.60
81869;DHT22;71320;52.252;13.382;2023-10-19T05:41:19;20.50;48.60
81869;DHT22;71320;52.252;13.382;2023-10-19T05:46:22;20.50;48.60
81869;DHT22;71320;52.252;13.382;2023-10-19T05:51:25;20.50;48.90
81869;DHT22;71320;52.252;13.382;2023-10-19T05:56:28;20.60;49.40
81869;DHT22;71320;52.252;13.382;2023-10-19T06:01:30;20.60;49.60
81869;DHT22;71320;52.252;13.382;2023-10-19T06:06:32;20.70;49.70
81869;DHT22;71320;52.252;13.382;2023-10-19T06:11:35;20.70;49.90
81869;DHT22;71320;52.252;13.382;2023-10-19T06:16:38;20.80;50.00
81869;DHT22;71320;52.252;13.382;2023-10-19T06:21:39;20.80;50.10
81869;DHT22;71320;52.252;13.382;2023-10-19T06:26:42;20.90;50.20
81869;DHT22;71320;52.252;13.382;2023-10-19T06:31:44;20.90;50.20
81869;DHT22;71320;52.252;13.382;2023-10-19T06:36:46;20.90;50.30
81869;DHT22;71320;52.252;13.382;2023-10-19T06:41:48;21.00;50.60
81869;DHT22;71320;52.252;13.382;2023-10-19T06:46:50;21.00;50.60
81869;DHT22;71320;52.252;13.382;2023-10-19T06:51:52;21.00;50.60
81869;DHT22;71320;52.252;13.382;2023-10-19T06:56:55;21.10;50.90
81869;DHT22;71320;52.252;13.382;2023-10-19T07:01:56;21.10;50.80
81869;DHT22;71320;52.252;13.382;2023-10-19T07:06:58;21.10;50.70
81869;DHT22;71320;52.252;13.382;2023-10-19T07:12:02;21.30;51.60
81869;DHT22;71320;52.252;13.382;2023-10-19T07:17:04;21.50;51.50
81869;DHT22;71320;52.252;13.382;2023-10-19T07:22:06;21.70;51.10
81869;DHT22;71320;52.252;13.382;2023-10-19T07:27:11;21.90;51.10
81869;DHT22;71320;52.252;13.382;2023-10-19T07:32:18;22.10;50.90
81869;DHT22;71320;52.252;13.382;2023-10-19T07:37:20;22.30;50.60
81869;DHT22;71320;52.252;13.382;2023-10-19T07:42:24;22.40;50.30
81869;DHT22;71320;52.252;13.382;2023-10-19T07:47:26;22.40;50.30
81869;DHT22;71320;52.252;13.382;2023-10-19T07:52:27;22.60;49.90
81869;DHT22;71320;52.252;13.382;2023-10-19T07:57:31;22.80;49.70
81869;DHT22;71320;52.252;13.382;2023-10-19T08:02:32;22.80;49.60
81869;DHT22;71320;52.252;13.382;2023-10-19T08:07:34;22.90;49.50
81869;DHT22;71320;52.252;13.382;2023-10-19T08:12:38;23.00;49.40
81869;DHT22;71320;52.252;13.382;2023-10-19T08:17:44;23.00;49.30
81869;DHT22;71320;52.252;13.382;2023-10-19T08:22:52;23.00;49.20
81869;DHT22;71320;52.252;13.382;2023-10-19T08:27:55;22.90;49.20
81869;DHT22;71320;52.252;13.382;2023-10-19T08:32:57;22.80;49.50
81869;DHT22;71320;52.252;13.382;2023-10-19T08:37:59;22.50;49.40
81869;DHT22;71320;52.252;13.382;2023-10-19T08:43:02;22.30;48.50
81869;DHT22;71320;52.252;13.382;2023-10-19T08:48:05;22.20;49.40
81869;DHT22;71320;52.252;13.382;2023-10-19T08:53:07;22.10;50.00
81869;DHT22;71320;52.252;13.382;2023-10-19T08:58:10;22.00;50.20
81869;DHT22;71320;52.252;13.382;2023-10-19T09:03:12;21.90;50.70
81869;DHT22;71320;52.252;13.382;2023-10-19T09:08:15;21.90;50.60
81869;DHT22;71320;52.252;13.382;2023-10-19T09:13:18;22.00;50.70
81869;DHT22;71320;52.252;13.382;2023-10-19T09:18:23;22.10;51.00
81869;DHT22;71320;52.252;13.382;2023-10-19T09:23:25;22.10;50.90
81869;DHT22;71320;52.252;13.382;2023-10-19T09:28:29;22.20;50.70
81869;DHT22;71320;52.252;13.382;2023-10-19T09:33:33;22.30;50.80
81869;DHT22;71320;52.252;13.382;2023-10-19T09:38:35;22.10;50.60
81869;DHT22;71320;52.252;13.382;2023-10-19T09:43:41;22.10;50.90
81869;DHT22;71320;52.252;13.382;2023-10-19T09:48:45;22.10;50.90
81869;DHT22;71320;52.252;13.382;2023-10-19T09:53:48;22.00;51.00
81869;DHT22;71320;52.252;13.382;2023-10-19T09:58:52;22.00;51.00
81869;DHT22;71320;52.252;13.382;2023-10-19T10:03:54;22.00;51.00
81869;DHT22;71320;52.252;13.382;2023-10-19T10:09:00;22.00;50.80
81869;DHT22;71320;52.252;13.382;2023-10-19T10:14:05;21.90;50.80
81869;DHT22;71320;52.252;13.382;2023-10-19T10:19:30;22.00;50.70
81869;DHT22;71320;52.252;13.382;2023-10-19T10:24:34;21.90;50.40
81869;DHT22;71320;52.252;13.382;2023-10-19T10:29:37;21.90;50.50
81869;DHT22;71320;52.252;13.382;2023-10-19T10:34:54;21.90;50.50
81869;DHT22;71320;52.252;13.382;2023-10-19T10:39:58;21.90;50.70
81869;DHT22;71320;52.252;13.382;2023-10-19T10:45:01;21.90;50.90
81869;DHT22;71320;52.252;13.382;2023-10-19T10:50:06;21.90;51.00
81869;DHT22;71320;52.252;13.382;2023-10-19T10:55:08;21.90;51.20
81869;DHT22;71320;52.252;13.382;2023-10-19T11:00:13;21.90;51.10
81869;DHT22;71320;52.252;13.382;2023-10-19T11:05:16;21.90;51.00
81869;DHT22;71320;52.252;13.382;2023-10-19T11:10:26;22.00;51.20
81869;DHT22;71320;52.252;13.382;2023-10-19T11:15:29;22.10;51.40
81869;DHT22;71320;52.252;13.382;2023-10-19T11:20:31;22.00;51.30
81869;DHT22;71320;52.252;13.382;2023-10-19T11:25:32;22.00;51.40
81869;DHT22;71320;52.252;13.382;2023-10-19T11:30:35;22.10;51.50
81869;DHT22;71320;52.252;13.382;2023-10-19T11:35:37;22.00;51.50
81869;DHT22;71320;52.252;13.382;2023-10-19T11:40:38;22.00;51.60
81869;DHT22;71320;52.252;13.382;2023-10-19T11:45:41;22.10;51.70
81869;DHT22;71320;52.252;13.382;2023-10-19T11:50:43;22.00;51.70
81869;DHT22;71320;52.252;13.382;2023-10-19T11:55:45;22.00;51.70
81869;DHT22;71320;52.252;13.382;2023-10-19T12:00:49;22.00;51.80
81869;DHT22;71320;52.252;13.382;2023-10-19T12:05:52;22.10;51.90
81869;DHT22;71320;52.252;13.382;2023-10-19T12:10:55;22.20;51.80
81869;DHT22;71320;52.252;13.382;2023-10-19T12:15:58;22.20;51.80
81869;DHT22;71320;52.252;13.382;2023-10-19T12:20:59;22.20;51.90
81869;DHT22;71320;52.252;13.382;2023-10-19T12:26:01;22.20;51.90
81869;DHT22;71320;52.252;13.382;2023-10-19T12:31:06;22.20;52.00
81869;DHT22;71320;52.252;13.382;2023-10-19T12:36:09;22.30;51.70
81869;DHT22;71320;52.252;13.382;2023-10-19T12:41:31;22.30;51.80
81869;DHT22;71320;52.252;13.382;2023-10-19T12:46:34;22.40;51.90
81869;DHT22;71320;52.252;13.382;2023-10-19T12:51:37;22.30;51.60
81869;DHT22;71320;52.252;13.382;2023-10-19T12:56:40;22.30;51.80
81869;DHT22;71320;52.252;13.382;2023-10-19T13:01:43;22.20;51.90
81869;DHT22;71320;52.252;13.382;2023-10-19T13:06:48;22.20;51.90
81869;DHT22;71320;52.252;13.382;2023-10-19T13:11:50;22.20;52.00
81869;DHT22;71320;52.252;13.382;2023-10-19T13:16:53;22.30;52.20
81869;DHT22;71320;52.252;13.382;2023-10-19T13:21:55;22.20;52.10
81869;DHT22;71320;52.252;13.382;2023-10-19T13:26:58;22.20;52.00
81869;DHT22;71320;52.252;13.382;2023-10-19T13:32:01;22.20;52.00
81869;DHT22;71320;52.252;13.382;2023-10-19T13:37:03;22.20;52.00
81869;DHT22;71320;52.252;13.382;2023-10-19T13:42:08;22.20;52.00
81869;DHT22;71320;52.252;13.382;2023-10-19T13:47:11;22.20;51.80
81869;DHT22;71320;52.252;13.382;2023-10-19T13:52:13;22.20;51.50
81869;DHT22;71320;52.252;13.382;2023-10-19T13:57:15;22.30;51.70
81869;DHT22;71320;52.252;13.382;2023-10-19T14:02:18;22.20;51.30
81869;DHT22;71320;52.252;13.382;2023-10-19T14:07:19;22.30;51.30
81869;DHT22;71320;52.252;13.382;2023-10-19T14:12:21;22.30;51.20
81869;DHT22;71320;52.252;13.382;2023-10-19T14:17:24;22.30;50.90
81869;DHT22;71320;52.252;13.382;2023-10-19T14:22:26;22.30;50.60
81869;DHT22;71320;52.252;13.382;2023-10-19T14:27:28;22.30;50.50
81869;DHT22;71320;52.252;13.382;2023-10-19T14:32:32;22.30;50.40
81869;DHT22;71320;52.252;13.382;2023-10-19T14:37:33;22.30;50.60
81869;DHT22;71320;52.252;13.382;2023-10-19T14:42:35;22.20;50.40
81869;DHT22;71320;52.252;13.382;2023-10-19T14:47:38;22.20;50.30
81869;DHT22;71320;52.252;13.382;2023-10-19T14:52:41;22.20;50.40
81869;DHT22;71320;52.252;13.382;2023-10-19T14:57:44;22.20;50.40
81869;DHT22;71320;52.252;13.382;2023-10-19T15:02:50;22.10;50.10
81869;DHT22;71320;52.252;13.382;2023-10-19T15:07:54;22.10;50.30
81869;DHT22;71320;52.252;13.382;2023-10-19T15:12:57;22.00;50.40
81869;DHT22;71320;52.252;13.382;2023-10-19T15:18:00;22.00;50.40
81869;DHT22;71320;52.252;13.382;2023-10-19T15:23:02;22.00;50.30
81869;DHT22;71320;52.252;13.382;2023-10-19T15:28:04;22.00;50.30
81869;DHT22;71320;52.252;13.382;2023-10-19T15:33:07;22.00;50.20
81869;DHT22;71320;52.252;13.382;2023-10-19T15:38:09;22.00;50.30
81869;DHT22;71320;52.252;13.382;2023-10-19T15:43:10;21.90;50.20
81869;DHT22;71320;52.252;13.382;2023-10-19T15:48:13;21.90;50.30
81869;DHT22;71320;52.252;13.382;2023-10-19T15:53:15;22.00;50.20
81869;DHT22;71320;52.252;13.382;2023-10-19T15:58:17;21.90;50.20
81869;DHT22;71320;52.252;13.382;2023-10-19T16:03:22;21.90;50.50
81869;DHT22;71320;52.252;13.382;2023-10-19T16:08:24;21.80;50.30
81869;DHT22;71320;52.252;13.382;2023-10-19T16:13:26;21.80;50.20
81869;DHT22;71320;52.252;13.382;2023-10-19T16:18:29;21.80;50.00
81869;DHT22;71320;52.252;13.382;2023-10-19T16:23:30;21.80;49.90
81869;DHT22;71320;52.252;13.382;2023-10-19T16:28:32;21.80;49.80
81869;DHT22;71320;52.252;13.382;2023-10-19T16:33:35;21.80;49.80
81869;DHT22;71320;52.252;13.382;2023-10-19T16:38:36;21.80;49.70
81869;DHT22;71320;52.252;13.382;2023-10-19T16:43:38;21.70;50.00
81869;DHT22;71320;52.252;13.382;2023-10-19T16:48:41;21.70;49.90
81869;DHT22;71320;52.252;13.382;2023-10-19T16:53:43;21.60;49.70
81869;DHT22;71320;52.252;13.382;2023-10-19T16:58:44;21.60;49.70
81869;DHT22;71320;52.252;13.382;2023-10-19T17:03:47;21.60;49.80
81869;DHT22;71320;52.252;13.382;2023-10-19T17:08:49;21.60;49.80
81869;DHT22;71320;52.252;13.382;2023-10-19T17:13:50;21.60;49.80
81869;DHT22;71320;52.252;13.382;2023-10-19T17:18:57;21.50;49.70
81869;DHT22;71320;52.252;13.382;2023-10-19T17:23:58;21.50;49.80
81869;DHT22;71320;52.252;13.382;2023-10-19T17:29:00;21.50;49.80
81869;DHT22;71320;52.252;13.382;2023-10-19T17:34:03;21.50;49.80
81869;DHT22;71320;52.252;13.382;2023-10-19T17:39:07;21.50;49.80
81869;DHT22;71320;52.252;13.382;2023-10-19T17:44:12;21.40;49.80
81869;DHT22;71320;52.252;13.382;2023-10-19T17:49:15;21.40;49.80
81869;DHT22;71320;52.252;13.382;2023-10-19T17:54:17;21.40;49.80
81869;DHT22;71320;52.252;13.382;2023-10-19T17:59:19;21.40;49.80
81869;DHT22;71320;52.252;13.382;2023-10-19T18:04:22;21.30;49.70
81869;DHT22;71320;52.252;13.382;2023-10-19T18:09:24;21.30;49.70
81869;DHT22;71320;52.252;13.382;2023-10-19T18:14:25;21.30;49.70
81869;DHT22;71320;52.252;13.382;2023-10-19T18:19:28;21.30;49.80
81869;DHT22;71320;52.252;13.382;2023-10-19T18:24:32;21.30;49.80
81869;DHT22;71320;52.252;13.382;2023-10-19T18:29:34;21.20;49.70
81869;DHT22;71320;52.252;13.382;2023-10-19T18:34:36;21.20;49.70
81869;DHT22;71320;52.252;13.382;2023-10-19T18:39:42;21.20;49.90
81869;DHT22;71320;52.252;13.382;2023-10-19T18:44:44;21.10;49.70
81869;DHT22;71320;52.252;13.382;2023-10-19T18:49:49;21.20;49.80
81869;DHT22;71320;52.252;13.382;2023-10-19T18:54:53;21.10;49.70
81869;DHT22;71320;52.252;13.382;2023-10-19T18:59:55;21.10;49.70
81869;DHT22;71320;52.252;13.382;2023-10-19T19:04:58;21.10;49.80
81869;DHT22;71320;52.252;13.382;2023-10-19T19:09:59;21.10;49.70
81869;DHT22;71320;52.252;13.382;2023-10-19T19:15:01;21.10;49.70
81869;DHT22;71320;52.252;13.382;2023-10-19T19:20:05;21.00;49.70
81869;DHT22;71320;52.252;13.382;2023-10-19T19:25:11;21.00;49.70
81869;DHT22;71320;52.252;13.382;2023-10-19T19:30:13;21.00;49.60
81869;DHT22;71320;52.252;13.382;2023-10-19T19:35:16;21.00;49.70
81869;DHT22;71320;52.252;13.382;2023-10-19T19:40:17;21.00;49.70
81869;DHT22;71320;52.252;13.382;2023-10-19T19:45:23;21.00;49.80
81869;DHT22;71320;52.252;13.382;2023-10-19T19:50:26;20.90;49.80
81869;DHT22;71320;52.252;13.382;2023-10-19T19:55:28;20.90;49.80
81869;DHT22;71320;52.252;13.382;2023-10-19T20:00:30;20.90;49.80
81869;DHT22;71320;52.252;13.382;2023-10-19T20:05:33;20.90;49.80
81869;DHT22;71320;52.252;13.382;2023-10-19T20:10:35;20.90;49.80
81869;DHT22;71320;52.252;13.382;2023-10-19T20:15:37;20.90;49.80
81869;DHT22;71320;52.252;13.382;2023-10-19T20:20:42;20.90;49.80
81869;DHT22;71320;52.252;13.382;2023-10-19T20:25:44;20.90;49.90
81869;DHT22;71320;52.252;13.382;2023-10-19T20:30:46;20.90;49.80
81869;DHT22;71320;52.252;13.382;2023-10-19T20:35:49;20.80;49.80
81869;DHT22;71320;52.252;13.382;2023-10-19T20:40:52;20.80;49.80
81869;DHT22;71320;52.252;13.382;2023-10-19T20:45:54;20.80;49.80
81869;DHT22;71320;52.252;13.382;2023-10-19T20:50:57;20.80;49.80
81869;DHT22;71320;52.252;13.382;2023-10-19T20:55:59;20.80;49.80
81869;DHT22;71320;52.252;13.382;2023-10-19T21:01:03;20.80;49.90
81869;DHT22;71320;52.252;13.382;2023-10-19T21:06:13;20.70;49.80
81869;DHT22;71320;52.252;13.382;2023-10-19T21:11:15;20.80;49.80
81869;DHT22;71320;52.252;13.382;2023-10-19T21:16:17;20.70;49.80
81869;DHT22;71320;52.252;13.382;2023-10-19T21:21:20;20.70;49.80
81869;DHT22;71320;52.252;13.382;2023-10-19T21:26:22;20.70;49.80
81869;DHT22;71320;52.252;13.382;2023-10-19T21:31:24;20.70;49.80
81869;DHT22;71320;52.252;13.382;2023-10-19T21:36:27;20.70;49.80
81869;DHT22;71320;52.252;13.382;2023-10-19T21:41:31;20.70;49.80
81869;DHT22;71320;52.252;13.382;2023-10-19T21:46:35;20.70;49.80
81869;DHT22;71320;52.252;13.382;2023-10-19T21:51:41;20.70;49.80
81869;DHT22;71320;52.252;13.382;2023-10-19T21:56:43;20.60;49.70
81869;DHT22;71320;52.252;13.382;2023-10-19T22:01:45;20.60;49.70
81869;DHT22;71320;52.252;13.382;2023-10-19T22:06:48;20.60;49.80
81869;DHT22;71320;52.252;13.382;2023-10-19T22:11:50;20.60;49.70
81869;DHT22;71320;52.252;13.382;2023-10-19T22:16:51;20.60;49.80
81869;DHT22;71320;52.252;13.382;2023-10-19T22:21:54;20.60;49.80
81869;DHT22;71320;52.252;13.382;2023-10-19T22:26:55;20.60;49.80
81869;DHT22;71320;52.252;13.382;2023-10-19T22:31:57;20.60;49.80
81869;DHT22;71320;52.252;13.382;2023-10-19T22:37:00;20.50;49.70
81869;DHT22;71320;52.252;13.382;2023-10-19T22:42:03;20.60;49.80
81869;DHT22;71320;52.252;13.382;2023-10-19T22:47:05;20.50;49.70
81869;DHT22;71320;52.252;13.382;2023-10-19T22:52:08;20.50;49.80
81869;DHT22;71320;52.252;13.382;2023-10-19T22:57:37;20.50;49.80
81869;DHT22;71320;52.252;13.382;2023-10-19T23:02:39;20.50;49.80
81869;DHT22;71320;52.252;13.382;2023-10-19T23:07:41;20.50;49.80
81869;DHT22;71320;52.252;13.382;2023-10-19T23:12:43;20.50;49.80
81869;DHT22;71320;52.252;13.382;2023-10-19T23:17:45;20.50;49.80
81869;DHT22;71320;52.252;13.382;2023-10-19T23:22:51;20.50;49.70
81869;DHT22;71320;52.252;13.382;2023-10-19T23:27:53;20.50;49.80
81869;DHT22;71320;52.252;13.382;2023-10-19T23:32:55;20.50;49.70
81869;DHT22;71320;52.252;13.382;2023-10-19T23:37:58;20.50;49.80
81869;DHT22;71320;52.252;13.382;2023-10-19T23:42:59;20.50;49.80
81869;DHT22;71320;52.252;13.382;2023-10-19T23:48:01;20.40;49.70
81869;DHT22;71320;52.252;13.382;2023-10-19T23:53:04;20.50;49.80
81869;DHT22;71320;52.252;13.382;2023-10-19T23:58:06;20.50;49.80
